Belmont, Montana
Current Conditions -  °F | °C
As of 9:20 PM on Sunday 21 Dec 2014 (Local Time) from KMVH Reporting Station
Broken Clouds Broken Clouds  
Wind Chill: 24°   Ceiling: 4600
Heat Index: 36°   Visibility: 10mi
Dew Point: 25°   Wind: 22mph
Humidity: 65%   Direction: 310°NW
Pressure: 29.62"   Gusts: 28mph
Location:  46.4448°N, 109.102°W
Report Text: KMVH 220420Z AUTO 31019G24KT 10SM FEW033 SCT040 BKN046 02/M04 A2962 RMK A01
Loading
Personal Weather Stations






























Interactive Weather Map New forecast layout! Learn more

10-Day Weather Forecast

Advertisements
Track Severe Weather on mobile